sensor_id;sensor_type;location;lat;lon;timestamp;P1;durP1;ratioP1;P2;durP2;ratioP2
66593;SDS011;53450;42.584;23.366;2024-01-10T00:00:36;6.87;;;3.03;;
66593;SDS011;53450;42.584;23.366;2024-01-10T00:03:02;4.37;;;2.70;;
66593;SDS011;53450;42.584;23.366;2024-01-10T00:05:28;2.00;;;1.90;;
66593;SDS011;53450;42.584;23.366;2024-01-10T00:07:54;3.73;;;2.67;;
66593;SDS011;53450;42.584;23.366;2024-01-10T00:10:20;2.73;;;2.53;;
66593;SDS011;53450;42.584;23.366;2024-01-10T00:12:47;4.80;;;3.10;;
66593;SDS011;53450;42.584;23.366;2024-01-10T00:15:12;3.77;;;3.20;;
66593;SDS011;53450;42.584;23.366;2024-01-10T00:17:39;7.50;;;3.73;;
66593;SDS011;53450;42.584;23.366;2024-01-10T00:20:05;7.30;;;4.87;;
66593;SDS011;53450;42.584;23.366;2024-01-10T00:22:32;7.90;;;4.60;;
66593;SDS011;53450;42.584;23.366;2024-01-10T00:24:57;5.33;;;4.10;;
66593;SDS011;53450;42.584;23.366;2024-01-10T00:27:23;3.30;;;3.00;;
66593;SDS011;53450;42.584;23.366;2024-01-10T00:29:49;5.97;;;3.90;;
66593;SDS011;53450;42.584;23.366;2024-01-10T00:32:16;4.33;;;3.73;;
66593;SDS011;53450;42.584;23.366;2024-01-10T00:34:42;4.00;;;3.27;;
66593;SDS011;53450;42.584;23.366;2024-01-10T00:37:08;6.10;;;3.23;;
66593;SDS011;53450;42.584;23.366;2024-01-10T00:39:33;3.53;;;3.03;;
66593;SDS011;53450;42.584;23.366;2024-01-10T00:41:59;3.27;;;2.97;;
66593;SDS011;53450;42.584;23.366;2024-01-10T00:44:24;4.80;;;4.30;;
66593;SDS011;53450;42.584;23.366;2024-01-10T00:46:50;5.00;;;3.20;;
66593;SDS011;53450;42.584;23.366;2024-01-10T00:49:15;7.20;;;4.67;;
66593;SDS011;53450;42.584;23.366;2024-01-10T00:51:41;17.07;;;10.17;;
66593;SDS011;53450;42.584;23.366;2024-01-10T00:54:06;10.00;;;6.70;;
66593;SDS011;53450;42.584;23.366;2024-01-10T00:56:32;4.70;;;3.63;;
66593;SDS011;53450;42.584;23.366;2024-01-10T00:58:58;6.57;;;4.07;;
66593;SDS011;53450;42.584;23.366;2024-01-10T01:01:23;4.40;;;3.40;;
66593;SDS011;53450;42.584;23.366;2024-01-10T01:03:49;10.00;;;3.90;;
66593;SDS011;53450;42.584;23.366;2024-01-10T01:06:15;9.03;;;6.07;;
66593;SDS011;53450;42.584;23.366;2024-01-10T01:08:41;5.27;;;4.20;;
66593;SDS011;53450;42.584;23.366;2024-01-10T01:11:06;4.60;;;3.63;;
66593;SDS011;53450;42.584;23.366;2024-01-10T01:13:32;6.73;;;4.57;;
66593;SDS011;53450;42.584;23.366;2024-01-10T01:15:58;7.30;;;5.37;;
66593;SDS011;53450;42.584;23.366;2024-01-10T01:18:23;6.83;;;4.90;;
66593;SDS011;53450;42.584;23.366;2024-01-10T01:20:49;4.47;;;4.00;;
66593;SDS011;53450;42.584;23.366;2024-01-10T01:23:15;4.90;;;4.37;;
66593;SDS011;53450;42.584;23.366;2024-01-10T01:25:41;6.43;;;4.60;;
66593;SDS011;53450;42.584;23.366;2024-01-10T01:28:07;5.13;;;4.17;;
66593;SDS011;53450;42.584;23.366;2024-01-10T01:30:33;5.03;;;4.10;;
66593;SDS011;53450;42.584;23.366;2024-01-10T01:32:58;7.07;;;4.63;;
66593;SDS011;53450;42.584;23.366;2024-01-10T01:35:24;11.83;;;7.60;;
66593;SDS011;53450;42.584;23.366;2024-01-10T01:37:50;8.63;;;4.90;;
66593;SDS011;53450;42.584;23.366;2024-01-10T01:40:17;10.87;;;5.70;;
66593;SDS011;53450;42.584;23.366;2024-01-10T01:42:44;7.03;;;4.60;;
66593;SDS011;53450;42.584;23.366;2024-01-10T01:45:11;7.93;;;5.63;;
66593;SDS011;53450;42.584;23.366;2024-01-10T01:47:37;6.90;;;5.20;;
66593;SDS011;53450;42.584;23.366;2024-01-10T01:50:04;6.23;;;4.97;;
66593;SDS011;53450;42.584;23.366;2024-01-10T01:52:30;23.93;;;8.13;;
66593;SDS011;53450;42.584;23.366;2024-01-10T01:54:56;9.40;;;5.07;;
66593;SDS011;53450;42.584;23.366;2024-01-10T01:57:22;93.17;;;32.83;;
66593;SDS011;53450;42.584;23.366;2024-01-10T01:59:49;73.97;;;29.53;;
66593;SDS011;53450;42.584;23.366;2024-01-10T02:02:15;25.67;;;12.50;;
66593;SDS011;53450;42.584;23.366;2024-01-10T02:04:41;18.77;;;9.30;;
66593;SDS011;53450;42.584;23.366;2024-01-10T02:07:07;14.97;;;8.57;;
66593;SDS011;53450;42.584;23.366;2024-01-10T02:09:33;8.80;;;5.73;;
66593;SDS011;53450;42.584;23.366;2024-01-10T02:11:58;8.37;;;5.53;;
66593;SDS011;53450;42.584;23.366;2024-01-10T02:14:24;15.40;;;6.73;;
66593;SDS011;53450;42.584;23.366;2024-01-10T02:16:49;8.23;;;5.67;;
66593;SDS011;53450;42.584;23.366;2024-01-10T02:19:21;16.33;;;7.33;;
66593;SDS011;53450;42.584;23.366;2024-01-10T02:21:48;14.30;;;9.13;;
66593;SDS011;53450;42.584;23.366;2024-01-10T02:24:14;15.07;;;7.93;;
66593;SDS011;53450;42.584;23.366;2024-01-10T02:26:39;12.60;;;7.53;;
66593;SDS011;53450;42.584;23.366;2024-01-10T02:29:05;13.87;;;7.50;;
66593;SDS011;53450;42.584;23.366;2024-01-10T02:31:31;10.03;;;6.27;;
66593;SDS011;53450;42.584;23.366;2024-01-10T02:33:56;18.70;;;7.97;;
66593;SDS011;53450;42.584;23.366;2024-01-10T02:36:22;11.83;;;7.33;;
66593;SDS011;53450;42.584;23.366;2024-01-10T02:38:47;9.40;;;6.33;;
66593;SDS011;53450;42.584;23.366;2024-01-10T02:41:13;11.93;;;7.27;;
66593;SDS011;53450;42.584;23.366;2024-01-10T02:43:38;8.97;;;6.33;;
66593;SDS011;53450;42.584;23.366;2024-01-10T02:46:04;8.67;;;6.23;;
66593;SDS011;53450;42.584;23.366;2024-01-10T02:48:30;12.23;;;7.73;;
66593;SDS011;53450;42.584;23.366;2024-01-10T02:50:55;10.60;;;6.70;;
66593;SDS011;53450;42.584;23.366;2024-01-10T02:53:21;10.40;;;6.43;;
66593;SDS011;53450;42.584;23.366;2024-01-10T02:55:47;13.47;;;7.23;;
66593;SDS011;53450;42.584;23.366;2024-01-10T02:58:14;11.70;;;6.93;;
66593;SDS011;53450;42.584;23.366;2024-01-10T03:00:39;14.40;;;7.50;;
66593;SDS011;53450;42.584;23.366;2024-01-10T03:03:05;31.17;;;12.43;;
66593;SDS011;53450;42.584;23.366;2024-01-10T03:05:30;15.80;;;7.90;;
66593;SDS011;53450;42.584;23.366;2024-01-10T03:07:56;10.80;;;5.80;;
66593;SDS011;53450;42.584;23.366;2024-01-10T03:10:21;9.10;;;6.47;;
66593;SDS011;53450;42.584;23.366;2024-01-10T03:14:02;8.43;;;6.40;;
66593;SDS011;53450;42.584;23.366;2024-01-10T03:16:34;8.90;;;6.50;;
66593;SDS011;53450;42.584;23.366;2024-01-10T03:19:00;8.33;;;6.30;;
66593;SDS011;53450;42.584;23.366;2024-01-10T03:21:26;11.43;;;7.20;;
66593;SDS011;53450;42.584;23.366;2024-01-10T03:23:53;11.80;;;7.60;;
66593;SDS011;53450;42.584;23.366;2024-01-10T03:26:20;15.37;;;9.03;;
66593;SDS011;53450;42.584;23.366;2024-01-10T03:28:45;18.93;;;11.27;;
66593;SDS011;53450;42.584;23.366;2024-01-10T03:31:11;17.63;;;11.37;;
66593;SDS011;53450;42.584;23.366;2024-01-10T03:33:37;10.00;;;6.50;;
66593;SDS011;53450;42.584;23.366;2024-01-10T03:36:03;10.47;;;7.33;;
66593;SDS011;53450;42.584;23.366;2024-01-10T03:38:29;12.60;;;7.77;;
66593;SDS011;53450;42.584;23.366;2024-01-10T03:40:54;14.30;;;9.23;;
66593;SDS011;53450;42.584;23.366;2024-01-10T03:43:20;9.37;;;6.97;;
66593;SDS011;53450;42.584;23.366;2024-01-10T03:45:45;9.87;;;6.13;;
66593;SDS011;53450;42.584;23.366;2024-01-10T03:48:11;10.70;;;6.70;;
66593;SDS011;53450;42.584;23.366;2024-01-10T03:50:36;8.67;;;6.70;;
66593;SDS011;53450;42.584;23.366;2024-01-10T03:53:02;12.70;;;7.73;;
66593;SDS011;53450;42.584;23.366;2024-01-10T03:55:27;12.47;;;8.87;;
66593;SDS011;53450;42.584;23.366;2024-01-10T03:57:53;13.17;;;7.40;;
66593;SDS011;53450;42.584;23.366;2024-01-10T04:00:18;11.77;;;7.07;;
66593;SDS011;53450;42.584;23.366;2024-01-10T04:02:45;15.33;;;10.40;;
66593;SDS011;53450;42.584;23.366;2024-01-10T04:05:11;9.87;;;6.63;;
66593;SDS011;53450;42.584;23.366;2024-01-10T04:07:39;11.53;;;6.60;;
66593;SDS011;53450;42.584;23.366;2024-01-10T04:10:09;11.48;;;7.38;;
66593;SDS011;53450;42.584;23.366;2024-01-10T04:12:48;12.05;;;7.35;;
66593;SDS011;53450;42.584;23.366;2024-01-10T04:15:14;14.57;;;8.07;;
66593;SDS011;53450;42.584;23.366;2024-01-10T04:17:40;19.97;;;9.40;;
66593;SDS011;53450;42.584;23.366;2024-01-10T04:20:06;14.00;;;8.33;;
66593;SDS011;53450;42.584;23.366;2024-01-10T04:22:32;9.10;;;7.33;;
66593;SDS011;53450;42.584;23.366;2024-01-10T04:24:58;13.00;;;7.23;;
66593;SDS011;53450;42.584;23.366;2024-01-10T04:27:25;11.30;;;7.23;;
66593;SDS011;53450;42.584;23.366;2024-01-10T04:29:51;14.60;;;9.07;;
66593;SDS011;53450;42.584;23.366;2024-01-10T04:32:16;12.53;;;7.97;;
66593;SDS011;53450;42.584;23.366;2024-01-10T04:34:42;12.33;;;9.10;;
66593;SDS011;53450;42.584;23.366;2024-01-10T04:37:07;9.27;;;7.87;;
66593;SDS011;53450;42.584;23.366;2024-01-10T04:39:33;13.07;;;8.17;;
66593;SDS011;53450;42.584;23.366;2024-01-10T04:41:59;12.00;;;7.53;;
66593;SDS011;53450;42.584;23.366;2024-01-10T04:44:25;9.73;;;7.30;;
66593;SDS011;53450;42.584;23.366;2024-01-10T04:46:51;20.77;;;9.87;;
66593;SDS011;53450;42.584;23.366;2024-01-10T04:49:16;12.77;;;7.77;;
66593;SDS011;53450;42.584;23.366;2024-01-10T04:51:42;12.03;;;8.00;;
66593;SDS011;53450;42.584;23.366;2024-01-10T04:54:08;9.47;;;6.97;;
66593;SDS011;53450;42.584;23.366;2024-01-10T04:56:34;10.43;;;6.90;;
66593;SDS011;53450;42.584;23.366;2024-01-10T04:59:01;13.60;;;7.83;;
66593;SDS011;53450;42.584;23.366;2024-01-10T05:01:27;17.17;;;8.97;;
66593;SDS011;53450;42.584;23.366;2024-01-10T05:03:53;16.40;;;9.90;;
66593;SDS011;53450;42.584;23.366;2024-01-10T05:06:19;17.67;;;11.07;;
66593;SDS011;53450;42.584;23.366;2024-01-10T05:08:44;16.83;;;8.97;;
66593;SDS011;53450;42.584;23.366;2024-01-10T05:11:10;15.27;;;9.70;;
66593;SDS011;53450;42.584;23.366;2024-01-10T05:13:36;16.23;;;10.50;;
66593;SDS011;53450;42.584;23.366;2024-01-10T05:16:02;16.57;;;9.43;;
66593;SDS011;53450;42.584;23.366;2024-01-10T05:18:27;11.03;;;7.37;;
66593;SDS011;53450;42.584;23.366;2024-01-10T05:20:53;11.87;;;7.43;;
66593;SDS011;53450;42.584;23.366;2024-01-10T05:23:19;13.00;;;7.13;;
66593;SDS011;53450;42.584;23.366;2024-01-10T05:25:44;38.67;;;15.37;;
66593;SDS011;53450;42.584;23.366;2024-01-10T05:28:10;32.90;;;13.20;;
66593;SDS011;53450;42.584;23.366;2024-01-10T05:30:35;28.60;;;12.70;;
66593;SDS011;53450;42.584;23.366;2024-01-10T05:33:01;12.33;;;8.30;;
66593;SDS011;53450;42.584;23.366;2024-01-10T05:35:26;19.33;;;9.67;;
66593;SDS011;53450;42.584;23.366;2024-01-10T05:37:52;17.53;;;10.57;;
66593;SDS011;53450;42.584;23.366;2024-01-10T05:40:18;14.30;;;9.03;;
66593;SDS011;53450;42.584;23.366;2024-01-10T05:42:44;13.00;;;9.23;;
66593;SDS011;53450;42.584;23.366;2024-01-10T05:45:09;10.30;;;7.07;;
66593;SDS011;53450;42.584;23.366;2024-01-10T05:47:35;13.33;;;8.97;;
66593;SDS011;53450;42.584;23.366;2024-01-10T05:50:01;11.63;;;7.50;;
66593;SDS011;53450;42.584;23.366;2024-01-10T05:52:27;16.17;;;10.37;;
66593;SDS011;53450;42.584;23.366;2024-01-10T05:54:53;19.63;;;11.90;;
66593;SDS011;53450;42.584;23.366;2024-01-10T05:57:19;16.47;;;11.67;;
66593;SDS011;53450;42.584;23.366;2024-01-10T05:59:46;21.07;;;11.97;;
66593;SDS011;53450;42.584;23.366;2024-01-10T06:02:12;18.60;;;9.93;;
66593;SDS011;53450;42.584;23.366;2024-01-10T06:04:37;15.43;;;9.73;;
66593;SDS011;53450;42.584;23.366;2024-01-10T06:07:03;12.33;;;8.90;;
66593;SDS011;53450;42.584;23.366;2024-01-10T06:09:29;15.37;;;9.70;;
66593;SDS011;53450;42.584;23.366;2024-01-10T06:11:54;12.73;;;9.27;;
66593;SDS011;53450;42.584;23.366;2024-01-10T06:14:20;17.87;;;11.03;;
66593;SDS011;53450;42.584;23.366;2024-01-10T06:16:45;15.00;;;9.20;;
66593;SDS011;53450;42.584;23.366;2024-01-10T06:19:11;14.60;;;9.23;;
66593;SDS011;53450;42.584;23.366;2024-01-10T06:21:37;23.43;;;14.47;;
66593;SDS011;53450;42.584;23.366;2024-01-10T06:24:03;11.90;;;8.70;;
66593;SDS011;53450;42.584;23.366;2024-01-10T06:26:29;16.83;;;9.70;;
66593;SDS011;53450;42.584;23.366;2024-01-10T06:28:54;11.87;;;8.57;;
66593;SDS011;53450;42.584;23.366;2024-01-10T06:31:20;12.57;;;7.57;;
66593;SDS011;53450;42.584;23.366;2024-01-10T06:33:49;12.73;;;8.87;;
66593;SDS011;53450;42.584;23.366;2024-01-10T06:36:14;15.70;;;11.03;;
66593;SDS011;53450;42.584;23.366;2024-01-10T06:38:40;17.90;;;11.70;;
66593;SDS011;53450;42.584;23.366;2024-01-10T06:41:09;28.07;;;11.93;;
66593;SDS011;53450;42.584;23.366;2024-01-10T06:43:38;18.30;;;11.77;;
66593;SDS011;53450;42.584;23.366;2024-01-10T06:46:03;20.80;;;9.47;;
66593;SDS011;53450;42.584;23.366;2024-01-10T06:48:29;25.40;;;15.20;;
66593;SDS011;53450;42.584;23.366;2024-01-10T06:50:55;23.80;;;14.10;;
66593;SDS011;53450;42.584;23.366;2024-01-10T06:53:23;24.73;;;15.23;;
66593;SDS011;53450;42.584;23.366;2024-01-10T06:55:49;18.13;;;10.33;;
66593;SDS011;53450;42.584;23.366;2024-01-10T06:58:14;25.53;;;13.03;;
66593;SDS011;53450;42.584;23.366;2024-01-10T07:00:40;38.93;;;21.77;;
66593;SDS011;53450;42.584;23.366;2024-01-10T07:03:06;25.87;;;13.40;;
66593;SDS011;53450;42.584;23.366;2024-01-10T07:05:32;16.63;;;9.60;;
66593;SDS011;53450;42.584;23.366;2024-01-10T07:07:58;39.17;;;16.70;;
66593;SDS011;53450;42.584;23.366;2024-01-10T07:10:24;12.43;;;8.17;;
66593;SDS011;53450;42.584;23.366;2024-01-10T07:12:53;23.57;;;11.63;;
66593;SDS011;53450;42.584;23.366;2024-01-10T07:15:19;24.67;;;15.57;;
66593;SDS011;53450;42.584;23.366;2024-01-10T07:17:45;35.23;;;18.20;;
66593;SDS011;53450;42.584;23.366;2024-01-10T07:20:11;50.80;;;21.40;;
66593;SDS011;53450;42.584;23.366;2024-01-10T07:22:37;17.23;;;10.23;;
66593;SDS011;53450;42.584;23.366;2024-01-10T07:27:39;109.47;;;40.37;;
66593;SDS011;53450;42.584;23.366;2024-01-10T07:30:06;93.70;;;36.50;;
66593;SDS011;53450;42.584;23.366;2024-01-10T07:32:39;20.23;;;12.33;;
66593;SDS011;53450;42.584;23.366;2024-01-10T07:35:08;12.17;;;6.90;;
66593;SDS011;53450;42.584;23.366;2024-01-10T07:37:38;11.90;;;7.87;;
66593;SDS011;53450;42.584;23.366;2024-01-10T07:40:05;10.97;;;7.10;;
66593;SDS011;53450;42.584;23.366;2024-01-10T07:42:36;14.90;;;7.90;;
66593;SDS011;53450;42.584;23.366;2024-01-10T07:45:02;70.37;;;34.13;;
66593;SDS011;53450;42.584;23.366;2024-01-10T07:47:32;31.53;;;19.73;;
66593;SDS011;53450;42.584;23.366;2024-01-10T07:50:08;42.13;;;24.17;;
66593;SDS011;53450;42.584;23.366;2024-01-10T07:52:35;25.77;;;14.33;;
66593;SDS011;53450;42.584;23.366;2024-01-10T07:55:01;17.43;;;9.43;;
66593;SDS011;53450;42.584;23.366;2024-01-10T07:57:30;24.43;;;10.57;;
66593;SDS011;53450;42.584;23.366;2024-01-10T07:59:56;19.17;;;9.17;;
66593;SDS011;53450;42.584;23.366;2024-01-10T08:02:22;23.67;;;10.50;;
66593;SDS011;53450;42.584;23.366;2024-01-10T08:04:47;16.37;;;9.20;;
66593;SDS011;53450;42.584;23.366;2024-01-10T08:07:13;14.83;;;8.30;;
66593;SDS011;53450;42.584;23.366;2024-01-10T08:09:39;13.10;;;8.60;;
66593;SDS011;53450;42.584;23.366;2024-01-10T08:12:05;19.27;;;8.83;;
66593;SDS011;53450;42.584;23.366;2024-01-10T08:14:31;13.17;;;9.40;;
66593;SDS011;53450;42.584;23.366;2024-01-10T08:16:56;20.00;;;9.53;;
66593;SDS011;53450;42.584;23.366;2024-01-10T08:19:24;7.73;;;5.03;;
66593;SDS011;53450;42.584;23.366;2024-01-10T08:21:53;13.90;;;8.30;;
66593;SDS011;53450;42.584;23.366;2024-01-10T08:24:19;13.73;;;8.47;;
66593;SDS011;53450;42.584;23.366;2024-01-10T08:26:46;12.33;;;7.30;;
66593;SDS011;53450;42.584;23.366;2024-01-10T08:31:43;13.00;;;7.73;;
66593;SDS011;53450;42.584;23.366;2024-01-10T08:34:09;13.27;;;8.53;;
66593;SDS011;53450;42.584;23.366;2024-01-10T08:36:34;13.63;;;6.80;;
66593;SDS011;53450;42.584;23.366;2024-01-10T08:39:00;15.57;;;9.27;;
66593;SDS011;53450;42.584;23.366;2024-01-10T08:41:25;12.27;;;8.10;;
66593;SDS011;53450;42.584;23.366;2024-01-10T08:43:51;27.17;;;14.10;;
66593;SDS011;53450;42.584;23.366;2024-01-10T08:46:16;21.67;;;12.23;;
66593;SDS011;53450;42.584;23.366;2024-01-10T08:48:43;13.37;;;8.73;;
66593;SDS011;53450;42.584;23.366;2024-01-10T08:51:08;26.43;;;8.73;;
66593;SDS011;53450;42.584;23.366;2024-01-10T08:53:35;164.17;;;59.57;;
66593;SDS011;53450;42.584;23.366;2024-01-10T08:56:00;28.10;;;13.67;;
66593;SDS011;53450;42.584;23.366;2024-01-10T08:58:26;26.73;;;14.97;;
66593;SDS011;53450;42.584;23.366;2024-01-10T09:00:51;31.50;;;16.30;;
66593;SDS011;53450;42.584;23.366;2024-01-10T09:03:17;21.37;;;12.30;;
66593;SDS011;53450;42.584;23.366;2024-01-10T09:05:42;17.43;;;10.77;;
66593;SDS011;53450;42.584;23.366;2024-01-10T09:08:08;15.63;;;8.00;;
66593;SDS011;53450;42.584;23.366;2024-01-10T09:10:34;16.27;;;9.60;;
66593;SDS011;53450;42.584;23.366;2024-01-10T09:12:59;19.00;;;9.83;;
66593;SDS011;53450;42.584;23.366;2024-01-10T09:15:25;17.50;;;9.17;;
66593;SDS011;53450;42.584;23.366;2024-01-10T09:17:50;17.63;;;10.50;;
66593;SDS011;53450;42.584;23.366;2024-01-10T09:20:17;16.47;;;10.10;;
66593;SDS011;53450;42.584;23.366;2024-01-10T09:22:43;19.37;;;10.47;;
66593;SDS011;53450;42.584;23.366;2024-01-10T09:25:08;20.27;;;9.17;;
66593;SDS011;53450;42.584;23.366;2024-01-10T09:27:35;15.77;;;9.07;;
66593;SDS011;53450;42.584;23.366;2024-01-10T09:30:01;12.33;;;7.93;;
66593;SDS011;53450;42.584;23.366;2024-01-10T09:32:35;14.17;;;9.03;;
66593;SDS011;53450;42.584;23.366;2024-01-10T09:35:02;15.63;;;8.03;;
66593;SDS011;53450;42.584;23.366;2024-01-10T09:37:28;9.30;;;6.83;;
66593;SDS011;53450;42.584;23.366;2024-01-10T09:39:53;14.23;;;8.10;;
66593;SDS011;53450;42.584;23.366;2024-01-10T09:42:19;31.50;;;7.57;;
66593;SDS011;53450;42.584;23.366;2024-01-10T09:44:50;18.55;;;9.25;;
66593;SDS011;53450;42.584;23.366;2024-01-10T09:47:16;11.33;;;7.47;;
66593;SDS011;53450;42.584;23.366;2024-01-10T09:49:44;34.93;;;17.13;;
66593;SDS011;53450;42.584;23.366;2024-01-10T09:52:15;13.10;;;8.70;;
66593;SDS011;53450;42.584;23.366;2024-01-10T09:54:45;22.53;;;9.63;;
66593;SDS011;53450;42.584;23.366;2024-01-10T09:57:12;21.40;;;12.03;;
66593;SDS011;53450;42.584;23.366;2024-01-10T09:59:38;24.07;;;14.90;;
66593;SDS011;53450;42.584;23.366;2024-01-10T10:02:03;9.37;;;6.97;;
66593;SDS011;53450;42.584;23.366;2024-01-10T10:04:29;11.90;;;7.67;;
66593;SDS011;53450;42.584;23.366;2024-01-10T10:06:59;15.37;;;8.53;;
66593;SDS011;53450;42.584;23.366;2024-01-10T10:09:26;17.73;;;9.23;;
66593;SDS011;53450;42.584;23.366;2024-01-10T10:11:55;16.23;;;9.20;;
66593;SDS011;53450;42.584;23.366;2024-01-10T10:14:20;12.17;;;8.30;;
66593;SDS011;53450;42.584;23.366;2024-01-10T10:16:47;17.50;;;9.73;;
66593;SDS011;53450;42.584;23.366;2024-01-10T10:19:13;13.77;;;9.50;;
66593;SDS011;53450;42.584;23.366;2024-01-10T10:21:48;14.47;;;9.70;;
66593;SDS011;53450;42.584;23.366;2024-01-10T10:24:13;20.40;;;9.37;;
66593;SDS011;53450;42.584;23.366;2024-01-10T10:26:39;16.80;;;8.90;;
66593;SDS011;53450;42.584;23.366;2024-01-10T10:29:06;16.70;;;9.03;;
66593;SDS011;53450;42.584;23.366;2024-01-10T10:31:32;13.70;;;9.30;;
66593;SDS011;53450;42.584;23.366;2024-01-10T10:33:59;14.13;;;9.30;;
66593;SDS011;53450;42.584;23.366;2024-01-10T10:36:26;16.03;;;8.60;;
66593;SDS011;53450;42.584;23.366;2024-01-10T10:38:51;19.83;;;9.23;;
66593;SDS011;53450;42.584;23.366;2024-01-10T10:41:18;14.90;;;8.07;;
66593;SDS011;53450;42.584;23.366;2024-01-10T10:43:44;13.67;;;7.13;;
66593;SDS011;53450;42.584;23.366;2024-01-10T10:46:10;12.00;;;6.70;;
66593;SDS011;53450;42.584;23.366;2024-01-10T10:48:40;12.17;;;7.40;;
66593;SDS011;53450;42.584;23.366;2024-01-10T10:53:54;10.63;;;6.50;;
66593;SDS011;53450;42.584;23.366;2024-01-10T10:56:21;29.67;;;13.00;;
66593;SDS011;53450;42.584;23.366;2024-01-10T10:58:48;25.07;;;12.57;;
66593;SDS011;53450;42.584;23.366;2024-01-10T11:01:15;26.50;;;14.93;;
66593;SDS011;53450;42.584;23.366;2024-01-10T11:03:42;15.27;;;7.60;;
66593;SDS011;53450;42.584;23.366;2024-01-10T11:06:12;9.40;;;7.03;;
66593;SDS011;53450;42.584;23.366;2024-01-10T11:08:40;15.50;;;9.30;;
66593;SDS011;53450;42.584;23.366;2024-01-10T11:17:21;37.00;;;18.23;;
66593;SDS011;53450;42.584;23.366;2024-01-10T11:22:43;50.17;;;18.80;;
66593;SDS011;53450;42.584;23.366;2024-01-10T11:25:29;29.07;;;12.50;;
66593;SDS011;53450;42.584;23.366;2024-01-10T11:27:55;31.10;;;14.50;;
66593;SDS011;53450;42.584;23.366;2024-01-10T11:30:33;45.07;;;20.20;;
66593;SDS011;53450;42.584;23.366;2024-01-10T11:38:50;45.13;;;17.17;;
66593;SDS011;53450;42.584;23.366;2024-01-10T11:41:22;35.60;;;16.63;;
66593;SDS011;53450;42.584;23.366;2024-01-10T11:44:32;33.97;;;15.90;;
66593;SDS011;53450;42.584;23.366;2024-01-10T11:46:52;34.90;;;13.67;;
66593;SDS011;53450;42.584;23.366;2024-01-10T11:49:29;26.87;;;14.30;;
66593;SDS011;53450;42.584;23.366;2024-01-10T11:54:35;27.00;;;13.20;;
66593;SDS011;53450;42.584;23.366;2024-01-10T11:57:14;28.93;;;18.47;;
66593;SDS011;53450;42.584;23.366;2024-01-10T11:59:44;19.57;;;10.33;;
66593;SDS011;53450;42.584;23.366;2024-01-10T12:02:11;21.20;;;10.83;;
66593;SDS011;53450;42.584;23.366;2024-01-10T12:04:37;18.47;;;11.00;;
66593;SDS011;53450;42.584;23.366;2024-01-10T12:07:03;24.97;;;11.60;;
66593;SDS011;53450;42.584;23.366;2024-01-10T12:09:31;34.23;;;13.87;;
66593;SDS011;53450;42.584;23.366;2024-01-10T12:11:57;22.60;;;10.53;;
66593;SDS011;53450;42.584;23.366;2024-01-10T12:14:23;21.23;;;10.97;;
66593;SDS011;53450;42.584;23.366;2024-01-10T12:16:50;25.23;;;12.70;;
66593;SDS011;53450;42.584;23.366;2024-01-10T12:21:41;37.03;;;15.57;;
66593;SDS011;53450;42.584;23.366;2024-01-10T12:24:07;22.77;;;12.57;;
66593;SDS011;53450;42.584;23.366;2024-01-10T12:26:33;24.53;;;13.33;;
66593;SDS011;53450;42.584;23.366;2024-01-10T12:28:59;22.83;;;12.40;;
66593;SDS011;53450;42.584;23.366;2024-01-10T12:31:28;26.10;;;13.67;;
66593;SDS011;53450;42.584;23.366;2024-01-10T12:33:55;24.40;;;11.30;;
66593;SDS011;53450;42.584;23.366;2024-01-10T12:36:21;23.57;;;11.13;;
66593;SDS011;53450;42.584;23.366;2024-01-10T12:38:46;22.20;;;10.10;;
66593;SDS011;53450;42.584;23.366;2024-01-10T12:41:14;14.50;;;9.50;;
66593;SDS011;53450;42.584;23.366;2024-01-10T12:43:40;24.83;;;13.27;;
66593;SDS011;53450;42.584;23.366;2024-01-10T12:46:06;22.27;;;12.50;;
66593;SDS011;53450;42.584;23.366;2024-01-10T12:48:36;26.33;;;10.37;;
66593;SDS011;53450;42.584;23.366;2024-01-10T12:51:10;22.83;;;12.30;;
66593;SDS011;53450;42.584;23.366;2024-01-10T12:53:43;26.47;;;12.80;;
66593;SDS011;53450;42.584;23.366;2024-01-10T12:56:09;27.30;;;12.13;;
66593;SDS011;53450;42.584;23.366;2024-01-10T12:58:39;33.67;;;13.10;;
66593;SDS011;53450;42.584;23.366;2024-01-10T13:01:10;24.50;;;13.37;;
66593;SDS011;53450;42.584;23.366;2024-01-10T13:05:04;24.77;;;12.50;;
66593;SDS011;53450;42.584;23.366;2024-01-10T13:07:30;10.63;;;6.97;;
66593;SDS011;53450;42.584;23.366;2024-01-10T13:09:59;27.53;;;12.03;;
66593;SDS011;53450;42.584;23.366;2024-01-10T13:12:24;20.83;;;11.30;;
66593;SDS011;53450;42.584;23.366;2024-01-10T13:14:50;31.13;;;14.50;;
66593;SDS011;53450;42.584;23.366;2024-01-10T13:17:15;39.63;;;18.90;;
66593;SDS011;53450;42.584;23.366;2024-01-10T13:19:41;41.00;;;17.27;;
66593;SDS011;53450;42.584;23.366;2024-01-10T13:22:10;27.27;;;15.27;;
66593;SDS011;53450;42.584;23.366;2024-01-10T13:24:38;47.43;;;18.60;;
66593;SDS011;53450;42.584;23.366;2024-01-10T13:27:04;56.57;;;17.90;;
66593;SDS011;53450;42.584;23.366;2024-01-10T13:29:30;19.10;;;11.10;;
66593;SDS011;53450;42.584;23.366;2024-01-10T13:31:55;46.27;;;14.70;;
66593;SDS011;53450;42.584;23.366;2024-01-10T13:34:21;87.97;;;27.97;;
66593;SDS011;53450;42.584;23.366;2024-01-10T13:36:50;92.37;;;28.83;;
66593;SDS011;53450;42.584;23.366;2024-01-10T13:39:16;55.67;;;25.00;;
66593;SDS011;53450;42.584;23.366;2024-01-10T13:41:42;72.60;;;22.07;;
66593;SDS011;53450;42.584;23.366;2024-01-10T13:44:07;26.00;;;14.20;;
66593;SDS011;53450;42.584;23.366;2024-01-10T13:46:33;25.40;;;12.63;;
66593;SDS011;53450;42.584;23.366;2024-01-10T13:48:59;60.93;;;22.20;;
66593;SDS011;53450;42.584;23.366;2024-01-10T13:51:26;34.97;;;14.23;;
66593;SDS011;53450;42.584;23.366;2024-01-10T13:54:40;35.03;;;16.60;;
66593;SDS011;53450;42.584;23.366;2024-01-10T13:57:07;30.10;;;16.43;;
66593;SDS011;53450;42.584;23.366;2024-01-10T13:59:33;25.17;;;13.43;;
66593;SDS011;53450;42.584;23.366;2024-01-10T14:01:58;30.17;;;16.77;;
66593;SDS011;53450;42.584;23.366;2024-01-10T14:04:24;28.03;;;15.53;;
66593;SDS011;53450;42.584;23.366;2024-01-10T14:06:50;31.93;;;15.10;;
66593;SDS011;53450;42.584;23.366;2024-01-10T14:09:16;111.63;;;40.10;;
66593;SDS011;53450;42.584;23.366;2024-01-10T14:11:45;103.30;;;35.77;;
66593;SDS011;53450;42.584;23.366;2024-01-10T14:14:13;66.55;;;26.73;;
66593;SDS011;53450;42.584;23.366;2024-01-10T14:16:39;178.37;;;63.00;;
66593;SDS011;53450;42.584;23.366;2024-01-10T14:19:06;66.80;;;27.60;;
66593;SDS011;53450;42.584;23.366;2024-01-10T14:21:32;31.83;;;18.67;;
66593;SDS011;53450;42.584;23.366;2024-01-10T14:23:57;47.67;;;21.93;;
66593;SDS011;53450;42.584;23.366;2024-01-10T14:26:23;50.87;;;23.00;;
66593;SDS011;53450;42.584;23.366;2024-01-10T14:28:51;45.10;;;22.63;;
66593;SDS011;53450;42.584;23.366;2024-01-10T14:31:20;67.37;;;27.33;;
66593;SDS011;53450;42.584;23.366;2024-01-10T14:33:46;77.67;;;32.87;;
66593;SDS011;53450;42.584;23.366;2024-01-10T14:36:12;111.13;;;37.63;;
66593;SDS011;53450;42.584;23.366;2024-01-10T14:38:41;172.90;;;57.87;;
66593;SDS011;53450;42.584;23.366;2024-01-10T14:41:07;217.03;;;68.70;;
66593;SDS011;53450;42.584;23.366;2024-01-10T14:43:33;255.77;;;85.87;;
66593;SDS011;53450;42.584;23.366;2024-01-10T14:46:01;161.17;;;55.03;;